Time;durP1;ratioP1;P1;durP2;ratioP2;P2;SDS_P1;SDS_P2;PMS_P1;PMS_P2;Temp;Humidity;BMP_temperature;BMP_pressure;BME280_temperature;BME280_humidity;BME280_pressure;Samples;Min_cycle;Max_cycle;Signal;HPM_P1;HPM_P2
2021/12/23 00:00:47;;;;;;;25.33;16.30;;;-2.30;99.90;;;;;;4989206;28;20100;-30
2021/12/23 00:03:13;;;;;;;29.03;16.90;;;-2.30;99.90;;;;;;4987895;28;20054;-30
2021/12/23 00:05:38;;;;;;;29.57;17.20;;;-2.30;99.90;;;;;;4982120;28;20113;-29
2021/12/23 00:08:04;;;;;;;31.37;18.20;;;-2.20;99.90;;;;;;4973950;28;20707;-30
2021/12/23 00:10:30;;;;;;;27.47;16.43;;;-2.30;99.90;;;;;;4988636;28;20105;-30
2021/12/23 00:12:56;;;;;;;22.13;15.17;;;-2.20;99.90;;;;;;4989456;28;20049;-30
2021/12/23 00:16:01;;;;;;;23.53;14.53;;;-2.20;99.90;;;;;;4989964;28;20050;-30
2021/12/23 00:18:44;;;;;;;21.50;14.50;;;-2.20;99.90;;;;;;4973549;28;20050;-30
2021/12/23 00:23:58;;;;;;;24.30;14.73;;;-2.20;99.90;;;;;;4990137;28;20053;-30
2021/12/23 00:26:24;;;;;;;23.17;14.27;;;-2.10;99.90;;;;;;4996674;28;20050;-30
2021/12/23 00:28:51;;;;;;;24.00;14.53;;;-2.10;99.90;;;;;;5004683;28;20045;-30
2021/12/23 00:31:17;;;;;;;25.53;15.30;;;-2.10;99.90;;;;;;5009301;28;20484;-30
2021/12/23 00:33:43;;;;;;;25.73;14.67;;;-2.10;99.90;;;;;;4990875;28;20046;-30
2021/12/23 00:36:11;;;;;;;22.27;14.20;;;-2.10;99.90;;;;;;5001836;28;20050;-30
2021/12/23 00:38:44;;;;;;;27.53;15.13;;;-2.10;99.90;;;;;;5002857;28;20049;-31
2021/12/23 00:41:10;;;;;;;21.53;14.97;;;-2.10;99.90;;;;;;4989403;28;20128;-30
2021/12/23 00:43:36;;;;;;;24.17;14.90;;;-2.10;99.90;;;;;;4988613;28;20046;-30
2021/12/23 00:46:06;;;;;;;26.70;15.73;;;-2.10;99.90;;;;;;4989734;28;20165;-30
2021/12/23 00:48:35;;;;;;;29.77;15.40;;;-2.00;99.90;;;;;;4977860;28;20576;-30
2021/12/23 00:51:02;;;;;;;26.93;14.73;;;-2.00;99.90;;;;;;4989164;28;20545;-31
2021/12/23 00:53:34;;;;;;;23.50;15.10;;;-2.00;99.90;;;;;;4987304;28;20093;-30
2021/12/23 00:56:00;;;;;;;25.00;16.10;;;-2.00;99.90;;;;;;5006863;28;20116;-30
2021/12/23 00:58:26;;;;;;;31.63;18.27;;;-2.00;99.90;;;;;;4974537;28;20081;-30
2021/12/23 01:00:52;;;;;;;25.87;17.33;;;-2.00;99.90;;;;;;5008627;28;20062;-30
2021/12/23 01:03:18;;;;;;;26.10;16.83;;;-2.00;99.90;;;;;;5008184;28;20053;-30
2021/12/23 01:05:44;;;;;;;23.90;16.30;;;-2.00;99.90;;;;;;5000826;28;20705;-30
2021/12/23 01:08:10;;;;;;;23.63;15.00;;;-1.90;99.90;;;;;;4992082;28;20135;-30
2021/12/23 01:10:36;;;;;;;22.67;14.83;;;-1.90;99.90;;;;;;5008411;28;20050;-30
2021/12/23 01:13:04;;;;;;;25.90;16.50;;;-1.90;99.90;;;;;;5008041;28;20335;-30
2021/12/23 01:18:08;;;;;;;22.83;15.17;;;-1.90;99.90;;;;;;4992211;28;20120;-30
2021/12/23 01:20:37;;;;;;;23.00;15.97;;;-1.80;99.90;;;;;;5008631;28;20046;-30
2021/12/23 01:23:12;;;;;;;26.00;15.57;;;-1.80;99.90;;;;;;4983725;28;20502;-30
2021/12/23 01:25:39;;;;;;;23.53;15.83;;;-1.80;99.90;;;;;;4989020;28;20109;-30
2021/12/23 01:28:07;;;;;;;25.33;15.00;;;-1.80;99.90;;;;;;4971983;28;20498;-30
2021/12/23 01:30:37;;;;;;;24.77;15.67;;;-1.80;99.90;;;;;;4982709;28;20050;-31
2021/12/23 01:33:04;;;;;;;24.53;15.77;;;-1.70;99.90;;;;;;4990224;28;20077;-30
2021/12/23 01:35:29;;;;;;;26.50;15.80;;;-1.70;99.90;;;;;;5008481;28;20037;-30
2021/12/23 01:37:55;;;;;;;25.87;15.73;;;-1.70;99.90;;;;;;4992850;28;20401;-30
2021/12/23 01:40:24;;;;;;;25.77;15.87;;;-1.70;99.90;;;;;;4994771;28;20093;-30
2021/12/23 01:42:50;;;;;;;26.57;16.30;;;-1.70;99.90;;;;;;4974753;28;20449;-30
2021/12/23 01:45:19;;;;;;;27.40;15.50;;;-1.70;99.90;;;;;;4992502;28;20034;-30
2021/12/23 01:47:46;;;;;;;29.07;17.67;;;-1.60;99.90;;;;;;4976528;28;20082;-30
2021/12/23 01:50:15;;;;;;;31.87;16.93;;;-1.60;99.90;;;;;;4992457;28;20651;-30
2021/12/23 01:52:42;;;;;;;30.27;17.63;;;-1.60;99.90;;;;;;4992001;28;20157;-30
2021/12/23 01:55:09;;;;;;;28.70;16.87;;;-1.60;99.90;;;;;;4985013;28;20088;-30
2021/12/23 01:57:36;;;;;;;25.80;17.30;;;-1.50;99.90;;;;;;4975941;28;20658;-30
2021/12/23 02:00:06;;;;;;;30.00;17.77;;;-1.50;99.90;;;;;;4994086;28;20474;-30
2021/12/23 02:02:32;;;;;;;21.25;13.77;;;-1.50;99.90;;;;;;5012113;28;20060;-30
2021/12/23 02:04:58;;;;;;;30.00;18.10;;;-1.40;99.90;;;;;;4986213;28;20042;-30
2021/12/23 02:07:24;;;;;;;28.07;16.60;;;-1.40;99.90;;;;;;4995610;28;20046;-30
2021/12/23 02:09:50;;;;;;;26.23;16.93;;;-1.30;99.90;;;;;;5017426;28;20574;-30
2021/12/23 02:12:16;;;;;;;28.67;17.97;;;-1.30;99.90;;;;;;5031041;28;20104;-30
2021/12/23 02:14:42;;;;;;;26.13;17.00;;;-1.30;99.90;;;;;;5007001;28;20217;-30
2021/12/23 02:17:08;;;;;;;30.47;17.27;;;-1.30;99.90;;;;;;4995417;28;20057;-30
2021/12/23 02:19:33;;;;;;;27.17;16.80;;;-1.20;99.90;;;;;;5009541;28;20437;-31
2021/12/23 02:22:00;;;;;;;27.93;16.80;;;-1.20;99.90;;;;;;4992823;28;20712;-30
2021/12/23 02:24:26;;;;;;;24.77;15.67;;;-1.20;99.90;;;;;;5005633;28;20097;-30
2021/12/23 02:26:51;;;;;;;26.90;16.53;;;-1.20;99.90;;;;;;4996037;28;20073;-30
2021/12/23 02:29:17;;;;;;;28.67;17.13;;;-1.20;99.90;;;;;;5008821;28;20149;-30
2021/12/23 02:31:51;;;;;;;26.77;16.37;;;-1.20;99.90;;;;;;4992066;28;20078;-30
2021/12/23 02:34:21;;;;;;;25.60;16.83;;;-1.10;99.90;;;;;;4991277;28;20054;-30
2021/12/23 02:36:56;;;;;;;30.70;17.50;;;-1.10;99.90;;;;;;4986655;28;20428;-30
2021/12/23 02:39:23;;;;;;;25.50;16.23;;;-1.20;99.90;;;;;;4993203;28;20061;-30
2021/12/23 02:41:49;;;;;;;27.73;16.87;;;-1.10;99.90;;;;;;5011674;28;20037;-30
2021/12/23 02:44:15;;;;;;;26.17;16.33;;;-1.10;99.90;;;;;;4992620;28;20504;-30
2021/12/23 02:46:41;;;;;;;25.57;15.87;;;-1.10;99.90;;;;;;4979640;28;20420;-30
2021/12/23 02:49:08;;;;;;;25.57;15.73;;;-1.10;99.90;;;;;;4991139;28;20046;-30
2021/12/23 02:51:34;;;;;;;24.57;15.60;;;-1.10;99.90;;;;;;5010790;28;20054;-30
2021/12/23 02:53:59;;;;;;;27.63;17.30;;;-1.10;99.90;;;;;;5009177;28;20053;-30
2021/12/23 02:56:25;;;;;;;27.00;16.47;;;-1.10;99.90;;;;;;4989230;28;20490;-30
2021/12/23 02:58:51;;;;;;;24.97;16.23;;;-1.00;99.90;;;;;;5006930;28;20049;-30
2021/12/23 03:01:19;;;;;;;26.83;16.97;;;-1.10;99.90;;;;;;5013393;28;20126;-30
2021/12/23 03:03:45;;;;;;;26.97;16.33;;;-1.10;99.90;;;;;;5008555;28;20046;-30
2021/12/23 03:06:11;;;;;;;24.23;16.30;;;-1.00;99.90;;;;;;4978535;28;20141;-30
2021/12/23 03:08:40;;;;;;;28.30;16.93;;;-0.80;99.90;;;;;;5003352;28;20058;-30
2021/12/23 03:11:08;;;;;;;25.00;15.60;;;-1.00;99.90;;;;;;5028239;28;20075;-30
2021/12/23 03:13:35;;;;;;;26.20;16.07;;;-1.00;99.90;;;;;;5029817;28;20042;-30
2021/12/23 03:16:02;;;;;;;27.33;16.43;;;-1.00;99.90;;;;;;5012159;28;20489;-30
2021/12/23 03:18:28;;;;;;;27.37;16.77;;;-1.00;99.90;;;;;;4974563;28;20082;-29
2021/12/23 03:20:55;;;;;;;27.13;16.60;;;-1.00;99.90;;;;;;4991119;28;20068;-30
2021/12/23 03:23:21;;;;;;;28.23;16.20;;;-1.00;99.90;;;;;;4986538;28;20045;-30
2021/12/23 03:25:47;;;;;;;26.03;16.97;;;-1.00;99.90;;;;;;4989251;28;20410;-30
2021/12/23 03:28:13;;;;;;;26.63;16.90;;;-1.00;99.90;;;;;;4974227;28;20431;-30
2021/12/23 03:30:39;;;;;;;27.33;16.57;;;-1.00;99.90;;;;;;4990895;28;20042;-31
2021/12/23 03:33:05;;;;;;;24.40;16.00;;;-1.00;99.90;;;;;;4990279;28;20046;-30
2021/12/23 03:35:30;;;;;;;24.50;15.87;;;-1.00;99.90;;;;;;4989686;28;20490;-29
2021/12/23 03:37:56;;;;;;;24.63;15.80;;;-1.00;99.90;;;;;;4975537;28;20046;-30
2021/12/23 03:40:23;;;;;;;29.00;17.50;;;-1.00;99.90;;;;;;4990812;28;20559;-30
2021/12/23 03:42:48;;;;;;;28.30;17.63;;;-1.00;99.90;;;;;;4989795;28;20451;-31
2021/12/23 03:45:15;;;;;;;27.40;16.97;;;-0.90;99.90;;;;;;4990283;28;20124;-30
2021/12/23 03:47:40;;;;;;;24.50;17.10;;;-0.90;99.90;;;;;;4974206;28;20050;-30
2021/12/23 03:50:07;;;;;;;25.60;16.03;;;-0.90;99.90;;;;;;4989338;28;20464;-30
2021/12/23 03:52:34;;;;;;;26.33;17.07;;;-0.90;99.90;;;;;;4989787;28;20046;-30
2021/12/23 03:55:00;;;;;;;29.53;17.47;;;-0.90;99.90;;;;;;4990285;28;20038;-30
2021/12/23 03:57:26;;;;;;;26.77;16.97;;;-0.90;99.90;;;;;;4973684;28;20473;-30
2021/12/23 03:59:51;;;;;;;27.10;16.80;;;-0.90;99.90;;;;;;4990207;28;20048;-30
2021/12/23 04:02:18;;;;;;;27.33;16.73;;;-0.90;99.90;;;;;;4989654;28;20053;-30
2021/12/23 04:04:44;;;;;;;27.90;16.97;;;-0.90;99.90;;;;;;4980045;28;20046;-30
2021/12/23 04:07:09;;;;;;;29.57;17.77;;;-0.90;99.90;;;;;;4973771;28;20481;-30
2021/12/23 04:09:35;;;;;;;26.20;17.33;;;-0.90;99.90;;;;;;4984655;28;20039;-30
2021/12/23 04:12:01;;;;;;;26.20;16.93;;;-0.90;99.90;;;;;;4970919;28;20062;-30
2021/12/23 04:14:27;;;;;;;30.97;17.80;;;-0.80;99.90;;;;;;4974292;28;20333;-30
2021/12/23 04:16:52;;;;;;;26.67;18.30;;;-0.90;99.90;;;;;;4974324;28;20120;-30
2021/12/23 04:19:18;;;;;;;26.43;17.20;;;-0.80;99.90;;;;;;4989350;28;20042;-30
2021/12/23 04:21:44;;;;;;;27.40;17.47;;;-0.80;99.90;;;;;;4988445;28;20514;-30
2021/12/23 04:24:10;;;;;;;27.20;17.17;;;-0.80;99.90;;;;;;4973951;28;20074;-30
2021/12/23 04:26:37;;;;;;;25.77;17.00;;;-0.80;99.90;;;;;;4972987;28;20068;-30
2021/12/23 04:29:04;;;;;;;28.77;17.97;;;-0.80;99.90;;;;;;4987107;28;20058;-30
2021/12/23 04:31:31;;;;;;;31.73;18.63;;;-0.80;99.90;;;;;;5008864;28;20077;-30
2021/12/23 04:33:56;;;;;;;27.27;17.43;;;-0.80;99.90;;;;;;5008574;28;20570;-30
2021/12/23 04:36:27;;;;;;;29.03;17.90;;;-0.80;99.90;;;;;;4996992;28;20129;-30
2021/12/23 04:38:53;;;;;;;27.83;17.30;;;-0.80;99.90;;;;;;4988455;28;20069;-29
2021/12/23 04:41:19;;;;;;;28.23;17.80;;;-0.80;99.90;;;;;;4991405;28;20076;-30
2021/12/23 04:43:45;;;;;;;27.20;16.77;;;-0.80;99.90;;;;;;5008533;28;20505;-31
2021/12/23 04:46:11;;;;;;;29.67;18.60;;;-0.80;99.90;;;;;;5000890;28;20525;-30
2021/12/23 04:48:37;;;;;;;30.70;19.40;;;-0.80;99.90;;;;;;5000670;28;20050;-31
2021/12/23 04:51:03;;;;;;;30.33;18.33;;;-0.80;99.90;;;;;;5009180;28;20492;-30
2021/12/23 04:53:29;;;;;;;29.53;18.13;;;-0.80;99.90;;;;;;5002515;28;20038;-30
2021/12/23 04:55:56;;;;;;;28.17;18.77;;;-0.80;99.90;;;;;;5000136;28;20512;-30
2021/12/23 04:58:21;;;;;;;27.80;17.43;;;-0.70;99.90;;;;;;4973078;28;20042;-30
2021/12/23 05:00:49;;;;;;;26.60;17.60;;;-0.70;99.90;;;;;;4995165;28;20054;-30
2021/12/23 05:03:17;;;;;;;29.33;18.37;;;-0.70;99.90;;;;;;4987869;28;20057;-30
2021/12/23 05:05:42;;;;;;;29.03;18.40;;;-0.70;99.90;;;;;;5006089;28;20377;-30
2021/12/23 05:08:08;;;;;;;29.43;18.57;;;-0.70;99.90;;;;;;4992087;28;20050;-30
2021/12/23 05:10:34;;;;;;;32.67;18.87;;;-0.70;99.90;;;;;;5021774;28;20041;-30
2021/12/23 05:13:01;;;;;;;26.03;17.17;;;-0.70;99.90;;;;;;5027325;28;20075;-30
2021/12/23 05:15:27;;;;;;;30.60;18.13;;;-0.60;99.90;;;;;;5015584;28;20137;-30
2021/12/23 05:17:53;;;;;;;30.47;18.57;;;-0.70;99.90;;;;;;4957819;28;20129;-30
2021/12/23 05:20:20;;;;;;;29.43;18.23;;;-0.70;99.90;;;;;;5008767;28;20149;-30
2021/12/23 05:22:49;;;;;;;28.53;17.97;;;-0.60;99.90;;;;;;4986250;28;20050;-30
2021/12/23 05:25:16;;;;;;;27.60;18.17;;;-0.60;99.90;;;;;;4988815;28;20047;-30
2021/12/23 05:27:43;;;;;;;31.87;18.80;;;-0.60;99.90;;;;;;4972006;28;20058;-30
2021/12/23 05:30:13;;;;;;;32.53;18.47;;;-0.60;99.90;;;;;;4996540;28;20402;-30
2021/12/23 05:32:41;;;;;;;30.13;18.23;;;-0.50;99.90;;;;;;5007341;28;20493;-30
2021/12/23 05:35:07;;;;;;;28.60;19.20;;;-0.50;99.90;;;;;;5008538;28;20058;-30
2021/12/23 05:37:33;;;;;;;30.67;19.00;;;-0.50;99.90;;;;;;4959065;28;20053;-30
2021/12/23 05:39:59;;;;;;;28.90;19.67;;;-0.50;99.90;;;;;;4988798;28;20039;-30
2021/12/23 05:42:24;;;;;;;27.70;17.87;;;-0.50;99.90;;;;;;4988308;28;20042;-30
2021/12/23 05:44:50;;;;;;;30.50;18.90;;;-0.50;99.90;;;;;;4988974;28;20038;-30
2021/12/23 05:47:16;;;;;;;31.43;19.33;;;-0.50;99.90;;;;;;4972073;28;20038;-30
2021/12/23 05:49:41;;;;;;;30.57;19.13;;;-0.40;99.90;;;;;;4989278;28;20066;-30
2021/12/23 05:52:07;;;;;;;31.40;19.33;;;-0.50;99.90;;;;;;4988124;28;20368;-30
2021/12/23 05:54:33;;;;;;;33.63;18.70;;;-0.50;99.90;;;;;;4994759;28;20049;-30
2021/12/23 05:57:02;;;;;;;30.73;19.23;;;-0.50;99.90;;;;;;4978585;28;20045;-30
2021/12/23 05:59:29;;;;;;;33.80;19.50;;;-0.50;99.90;;;;;;4987460;28;20380;-30
2021/12/23 06:01:55;;;;;;;29.83;19.90;;;-0.40;99.90;;;;;;5007263;28;20049;-30
2021/12/23 06:04:21;;;;;;;32.80;20.30;;;-0.40;99.90;;;;;;4983457;28;20052;-30
2021/12/23 06:06:47;;;;;;;29.43;18.93;;;-0.40;99.90;;;;;;4973315;28;20058;-30
2021/12/23 06:09:12;;;;;;;27.07;19.10;;;-0.40;99.90;;;;;;5009018;28;20051;-30
2021/12/23 06:11:38;;;;;;;31.23;18.67;;;-0.40;99.90;;;;;;5027878;28;20052;-30
2021/12/23 06:14:03;;;;;;;29.83;18.87;;;-0.40;99.90;;;;;;5007753;28;20076;-30
2021/12/23 06:16:29;;;;;;;28.80;18.93;;;-0.40;99.90;;;;;;4995845;28;20393;-30
2021/12/23 06:18:55;;;;;;;32.63;18.80;;;-0.20;99.90;;;;;;5005295;28;20042;-30
2021/12/23 06:21:22;;;;;;;29.93;19.70;;;-0.40;99.90;;;;;;4974254;28;20050;-30
2021/12/23 06:23:48;;;;;;;30.17;19.27;;;-0.40;99.90;;;;;;4994439;28;20046;-30
2021/12/23 06:26:13;;;;;;;29.53;19.93;;;-0.40;99.90;;;;;;4978963;28;20080;-30
2021/12/23 06:28:39;;;;;;;30.73;20.60;;;-0.40;99.90;;;;;;4984701;28;20082;-29
2021/12/23 06:31:05;;;;;;;31.30;19.90;;;-0.40;99.90;;;;;;4975195;28;20101;-30
2021/12/23 06:33:30;;;;;;;33.00;19.30;;;-0.30;99.90;;;;;;4991216;28;20052;-30
2021/12/23 06:35:56;;;;;;;31.90;21.33;;;-0.30;99.90;;;;;;4991894;28;20046;-30
2021/12/23 06:38:22;;;;;;;33.03;21.47;;;-0.30;99.90;;;;;;4976235;28;20058;-30
2021/12/23 06:40:48;;;;;;;33.70;21.90;;;-0.30;99.90;;;;;;4991977;28;20049;-30
2021/12/23 06:43:14;;;;;;;31.93;21.23;;;-0.30;99.90;;;;;;4990621;28;20104;-30
2021/12/23 06:45:39;;;;;;;31.23;21.77;;;-0.30;99.90;;;;;;4974247;28;20050;-30
2021/12/23 06:48:05;;;;;;;33.70;22.00;;;-0.30;99.90;;;;;;4975200;28;20046;-30
2021/12/23 06:50:31;;;;;;;35.63;22.40;;;-0.30;99.90;;;;;;4991858;28;20546;-30
2021/12/23 06:52:58;;;;;;;33.87;22.20;;;-0.30;99.90;;;;;;4990309;28;20077;-30
2021/12/23 06:55:24;;;;;;;36.10;22.37;;;-0.20;99.90;;;;;;4983455;28;20053;-30
2021/12/23 06:57:55;;;;;;;36.93;22.73;;;-0.30;99.90;;;;;;4973398;28;20517;-30
2021/12/23 07:00:21;;;;;;;23.48;16.33;;;-0.30;99.90;;;;;;4995962;28;20084;-30
2021/12/23 07:02:47;;;;;;;32.90;21.33;;;-0.30;99.90;;;;;;5008362;28;20157;-30
2021/12/23 07:05:14;;;;;;;33.30;20.27;;;-0.30;99.90;;;;;;4983384;28;20120;-30
2021/12/23 07:07:50;;;;;;;35.63;22.70;;;-0.30;99.90;;;;;;4990211;28;20048;-30
2021/12/23 07:10:16;;;;;;;36.00;21.57;;;-0.30;99.90;;;;;;5008591;28;20053;-30
2021/12/23 07:12:42;;;;;;;34.83;21.90;;;-0.30;99.90;;;;;;4997334;28;20552;-29
2021/12/23 07:15:08;;;;;;;35.20;22.20;;;-0.20;99.90;;;;;;5003882;28;20042;-30
2021/12/23 07:17:35;;;;;;;31.80;21.53;;;-0.30;99.90;;;;;;4992809;28;20481;-30
2021/12/23 07:20:02;;;;;;;34.07;22.43;;;-0.30;99.90;;;;;;5009096;28;20037;-30
2021/12/23 07:22:27;;;;;;;33.90;22.10;;;-0.20;99.90;;;;;;5007224;28;20100;-30
2021/12/23 07:24:53;;;;;;;33.27;21.87;;;-0.30;99.90;;;;;;4989585;28;20066;-30
2021/12/23 07:27:21;;;;;;;36.33;23.17;;;-0.20;99.90;;;;;;4972975;28;20097;-31
2021/12/23 07:29:47;;;;;;;35.77;23.50;;;-0.20;99.90;;;;;;4994722;28;20058;-30
2021/12/23 07:32:13;;;;;;;34.87;23.13;;;-0.20;99.90;;;;;;4978819;28;20401;-30
2021/12/23 07:34:40;;;;;;;36.77;23.17;;;-0.20;99.90;;;;;;5008927;28;20066;-30
2021/12/23 07:37:06;;;;;;;36.57;23.83;;;-0.20;99.90;;;;;;4993299;28;20045;-30
2021/12/23 07:39:32;;;;;;;38.40;23.87;;;-0.20;99.90;;;;;;5008689;28;20046;-30
2021/12/23 07:41:58;;;;;;;35.83;23.53;;;-0.20;99.90;;;;;;5007912;28;20049;-30
2021/12/23 07:44:23;;;;;;;39.07;23.37;;;-0.20;99.90;;;;;;5007250;28;20046;-30
2021/12/23 07:46:50;;;;;;;35.67;23.73;;;-0.20;99.90;;;;;;4966670;28;20379;-30
2021/12/23 07:49:16;;;;;;;35.87;23.47;;;-0.20;99.90;;;;;;4979502;28;20046;-30
2021/12/23 07:51:43;;;;;;;37.73;23.13;;;-0.20;99.90;;;;;;4980359;28;20045;-30
2021/12/23 07:54:09;;;;;;;39.63;24.60;;;-0.20;99.90;;;;;;4990361;28;20488;-30
2021/12/23 07:56:35;;;;;;;37.03;23.90;;;-0.20;99.90;;;;;;4975864;28;20046;-30
2021/12/23 07:59:01;;;;;;;36.60;24.00;;;-0.20;99.90;;;;;;4979028;28;20042;-30
2021/12/23 08:01:26;;;;;;;38.37;23.63;;;-0.20;99.90;;;;;;4990429;28;20056;-30
2021/12/23 08:03:52;;;;;;;37.83;24.50;;;-0.30;99.90;;;;;;4993219;28;20042;-30
2021/12/23 08:06:18;;;;;;;37.70;23.73;;;-0.20;99.90;;;;;;4976723;28;20517;-30
2021/12/23 08:08:44;;;;;;;40.97;24.27;;;-0.30;99.90;;;;;;4980776;28;20089;-30
2021/12/23 08:11:10;;;;;;;35.67;24.07;;;-0.30;99.90;;;;;;4997819;28;20413;-30
2021/12/23 08:13:36;;;;;;;36.43;24.57;;;-0.30;99.90;;;;;;4998777;28;20049;-30
2021/12/23 08:16:03;;;;;;;38.17;24.07;;;-0.30;99.90;;;;;;4980942;28;20050;-30
2021/12/23 08:18:30;;;;;;;41.80;24.63;;;-0.30;99.90;;;;;;4978303;28;20493;-30
2021/12/23 08:20:56;;;;;;;41.57;24.33;;;-0.30;99.90;;;;;;4999929;28;20579;-30
2021/12/23 08:23:22;;;;;;;43.90;25.23;;;-0.30;99.90;;;;;;4994189;28;20057;-30
2021/12/23 08:25:49;;;;;;;37.93;24.30;;;-0.30;99.90;;;;;;4981176;28;20062;-30
2021/12/23 08:28:14;;;;;;;40.77;24.57;;;-0.30;99.90;;;;;;4970974;28;20046;-30
2021/12/23 08:30:41;;;;;;;42.67;24.77;;;-0.30;99.90;;;;;;4986321;28;20564;-30
2021/12/23 08:33:08;;;;;;;38.57;24.57;;;-0.30;99.90;;;;;;4986912;28;20050;-30
2021/12/23 08:35:34;;;;;;;41.57;26.03;;;-0.30;99.90;;;;;;4986400;28;20411;-30
2021/12/23 08:38:00;;;;;;;44.40;25.37;;;-0.30;99.90;;;;;;4971453;28;20038;-30
2021/12/23 08:40:28;;;;;;;42.00;25.60;;;-0.30;99.90;;;;;;4985189;28;20053;-30
2021/12/23 08:42:56;;;;;;;41.70;25.80;;;-0.30;99.90;;;;;;4985549;28;20244;-30
2021/12/23 08:45:24;;;;;;;39.37;25.53;;;-0.30;99.90;;;;;;4987374;28;20129;-30
2021/12/23 08:47:50;;;;;;;41.90;25.73;;;-0.30;99.90;;;;;;4971019;28;20049;-30
2021/12/23 08:50:18;;;;;;;41.07;25.67;;;-0.20;99.90;;;;;;4984996;28;20154;-30
2021/12/23 08:52:45;;;;;;;40.07;25.07;;;-0.30;99.90;;;;;;4986262;28;20295;-30
2021/12/23 08:55:12;;;;;;;43.00;26.40;;;-0.30;99.90;;;;;;4979261;28;20502;-30
2021/12/23 08:57:38;;;;;;;41.70;25.73;;;-0.30;99.90;;;;;;4964702;28;20050;-30
2021/12/23 09:00:07;;;;;;;44.27;26.63;;;-0.30;99.90;;;;;;4986759;28;20073;-30
2021/12/23 09:02:33;;;;;;;42.27;26.70;;;-0.30;99.90;;;;;;4985888;28;20163;-30
2021/12/23 09:04:58;;;;;;;44.27;27.30;;;-0.30;99.90;;;;;;4985349;28;20108;-29
2021/12/23 09:07:24;;;;;;;41.37;26.20;;;-0.30;99.90;;;;;;4969531;28;20046;-30
2021/12/23 09:09:51;;;;;;;44.13;27.77;;;-0.20;99.90;;;;;;4985968;28;20042;-30
2021/12/23 09:12:18;;;;;;;40.83;26.47;;;-0.20;99.90;;;;;;4983224;28;20057;-30
2021/12/23 09:14:44;;;;;;;44.57;27.63;;;-0.30;99.90;;;;;;4986682;28;20050;-30
2021/12/23 09:17:10;;;;;;;44.53;27.77;;;-0.20;99.90;;;;;;4969784;28;20129;-32
2021/12/23 09:19:36;;;;;;;44.77;28.97;;;-0.20;99.90;;;;;;4985413;28;20112;-30
2021/12/23 09:22:02;;;;;;;45.23;29.33;;;-0.20;99.90;;;;;;4985673;28;20054;-30
2021/12/23 09:24:29;;;;;;;44.03;28.20;;;-0.20;99.90;;;;;;4986800;28;20057;-30
2021/12/23 09:27:07;;;;;;;43.83;28.93;;;-0.20;99.90;;;;;;4986147;28;20528;-30
2021/12/23 09:34:53;;;;;;;47.13;29.70;;;-0.20;99.90;;;;;;4994544;28;20188;-30
2021/12/23 09:37:20;;;;;;;50.27;30.33;;;-0.20;99.90;;;;;;4990070;28;20046;-31
2021/12/23 09:39:52;;;;;;;48.03;30.33;;;-0.20;99.90;;;;;;5001096;28;20046;-30
2021/12/23 09:42:22;;;;;;;50.50;31.40;;;-0.10;99.90;;;;;;5005037;28;20057;-30
2021/12/23 09:44:48;;;;;;;50.13;31.50;;;-0.10;99.90;;;;;;4999349;28;20053;-30
2021/12/23 09:47:14;;;;;;;53.83;32.40;;;-0.10;99.90;;;;;;4965548;28;20445;-30
2021/12/23 09:49:40;;;;;;;54.00;33.23;;;-0.10;99.90;;;;;;4992274;28;20042;-30
2021/12/23 09:52:07;;;;;;;58.33;35.10;;;-0.10;99.90;;;;;;4994573;28;20053;-31
2021/12/23 09:54:36;;;;;;;54.17;33.10;;;-0.10;99.90;;;;;;4997360;28;20038;-30
2021/12/23 09:57:02;;;;;;;58.93;36.07;;;-0.10;99.90;;;;;;4982197;28;20046;-30
2021/12/23 09:59:28;;;;;;;61.07;36.37;;;-0.10;99.90;;;;;;4985941;28;20054;-30
2021/12/23 10:01:55;;;;;;;63.03;35.27;;;-0.10;99.90;;;;;;5009331;28;20084;-30
2021/12/23 10:04:21;;;;;;;60.37;36.07;;;-0.10;99.90;;;;;;5008987;28;20049;-31
2021/12/23 10:06:49;;;;;;;63.87;36.60;;;-0.10;99.90;;;;;;4983649;28;20053;-30
2021/12/23 10:09:28;;;;;;;63.83;37.53;;;-0.10;99.90;;;;;;4999420;28;20084;-30
2021/12/23 10:27:02;;;;;;;68.93;39.60;;;-0.10;99.90;;;;;;4968753;28;20420;-30
2021/12/23 10:39:43;;;;;;;80.37;42.50;;;0.00;99.90;;;;;;4996144;28;20049;-31
2021/12/23 10:42:22;;;;;;;77.37;43.77;;;0.00;99.90;;;;;;4985663;28;20052;-30
2021/12/23 10:45:09;;;;;;;79.43;43.30;;;0.00;99.90;;;;;;4990468;28;20060;-30
2021/12/23 10:50:32;;;;;;;76.67;43.10;;;0.00;99.90;;;;;;4995446;28;20567;-30
2021/12/23 10:53:07;;;;;;;76.23;43.00;;;0.00;99.90;;;;;;4983523;28;20501;-30
2021/12/23 10:58:19;;;;;;;81.30;44.70;;;0.10;99.90;;;;;;4988516;28;20049;-30
2021/12/23 11:00:52;;;;;;;87.17;45.40;;;0.10;99.90;;;;;;5004169;28;20044;-30
2021/12/23 11:03:29;;;;;;;85.83;45.40;;;0.10;99.90;;;;;;5002573;28;20104;-30
2021/12/23 11:06:08;;;;;;;85.73;45.37;;;0.10;99.90;;;;;;5000049;28;20073;-30
2021/12/23 11:09:01;;;;;;;85.60;46.23;;;0.10;99.90;;;;;;4971400;28;20486;-30
2021/12/23 11:37:10;;;;;;;86.80;45.63;;;0.10;99.90;;;;;;4967506;28;20619;-30
2021/12/23 11:45:03;;;;;;;88.90;47.30;;;0.20;99.90;;;;;;4968600;28;20133;-30
2021/12/23 11:47:29;;;;;;;87.73;45.47;;;0.20;99.90;;;;;;4959325;28;20039;-30
2021/12/23 11:49:56;;;;;;;89.30;45.17;;;0.20;99.90;;;;;;4972249;28;20043;-30
2021/12/23 11:52:21;;;;;;;91.03;46.10;;;0.20;99.90;;;;;;4968882;28;20038;-30
2021/12/23 11:54:47;;;;;;;86.47;46.37;;;0.20;99.90;;;;;;4973353;28;20049;-30
2021/12/23 11:57:25;;;;;;;82.13;44.03;;;0.20;99.90;;;;;;4964886;28;20129;-30
2021/12/23 12:00:21;;;;;;;91.17;46.30;;;0.20;99.90;;;;;;4980082;28;20053;-30
2021/12/23 12:02:43;;;;;;;85.80;45.72;;;0.20;99.90;;;;;;4977813;28;20062;-30
2021/12/23 12:05:15;;;;;;;85.67;44.67;;;0.20;99.90;;;;;;4982996;28;20050;-30
2021/12/23 12:07:41;;;;;;;90.40;46.27;;;0.20;99.90;;;;;;4949891;28;20054;-30
2021/12/23 12:10:12;;;;;;;82.33;44.87;;;0.20;99.90;;;;;;4985404;28;20046;-30
2021/12/23 12:13:00;;;;;;;87.40;44.60;;;0.30;99.90;;;;;;4979886;28;20621;-30
2021/12/23 12:15:47;;;;;;;83.83;42.80;;;0.30;99.90;;;;;;4981157;28;20042;-30
2021/12/23 12:18:23;;;;;;;84.03;44.80;;;0.30;99.90;;;;;;4963276;28;20045;-30
2021/12/23 12:20:55;;;;;;;87.17;44.17;;;0.30;99.90;;;;;;4981465;28;20456;-30
2021/12/23 12:23:23;;;;;;;78.40;43.17;;;0.30;99.90;;;;;;4978182;28;20045;-30
2021/12/23 12:25:56;;;;;;;81.50;44.57;;;0.30;99.90;;;;;;4980844;28;20525;-30
2021/12/23 12:28:33;;;;;;;85.37;44.97;;;0.30;99.90;;;;;;4972151;28;20110;-30
2021/12/23 12:31:05;;;;;;;77.30;43.60;;;0.30;99.90;;;;;;4997223;28;20045;-30
2021/12/23 12:33:34;;;;;;;87.77;45.27;;;0.30;99.90;;;;;;5003677;28;20097;-30
2021/12/23 12:36:02;;;;;;;82.43;44.63;;;0.40;99.90;;;;;;4957187;28;20466;-30
2021/12/23 12:38:38;;;;;;;85.10;45.50;;;0.40;99.90;;;;;;4976571;28;20373;-30
2021/12/23 12:41:07;;;;;;;84.20;44.87;;;0.40;99.90;;;;;;4995002;28;20409;-30
2021/12/23 12:43:43;;;;;;;82.97;45.50;;;0.40;99.90;;;;;;4972683;28;20054;-30
2021/12/23 12:46:11;;;;;;;90.67;47.17;;;0.40;99.90;;;;;;4961147;28;20086;-30
2021/12/23 12:48:55;;;;;;;117.30;54.83;;;0.30;99.90;;;;;;4979904;28;20075;-30
2021/12/23 12:51:24;;;;;;;92.57;48.63;;;0.50;99.90;;;;;;4984481;28;20137;-30
2021/12/23 12:54:04;;;;;;;99.13;50.57;;;0.50;99.90;;;;;;4995480;28;20057;-29
2021/12/23 12:56:31;;;;;;;90.43;46.97;;;0.50;99.90;;;;;;4977885;28;20996;-30
2021/12/23 12:58:57;;;;;;;87.10;46.13;;;0.50;99.90;;;;;;4974799;28;20062;-30
2021/12/23 13:01:37;;;;;;;101.97;52.07;;;0.50;99.90;;;;;;4993400;28;20058;-30
2021/12/23 13:04:17;;;;;;;87.17;46.30;;;0.50;99.90;;;;;;4999133;28;20104;-30
2021/12/23 13:06:43;;;;;;;91.47;46.10;;;0.50;99.90;;;;;;4980570;28;20034;-30
2021/12/23 13:09:13;;;;;;;85.17;44.77;;;0.50;99.90;;;;;;4984697;28;20101;-30
2021/12/23 13:11:48;;;;;;;89.20;45.43;;;0.50;99.90;;;;;;4999342;28;20056;-30
2021/12/23 13:14:20;;;;;;;86.67;46.70;;;0.60;99.90;;;;;;4982910;28;20052;-30
2021/12/23 13:16:58;;;;;;;96.10;48.30;;;0.50;99.90;;;;;;4963479;28;20054;-30
2021/12/23 13:19:35;;;;;;;91.43;46.60;;;0.50;99.90;;;;;;4998839;28;20046;-30
2021/12/23 13:22:06;;;;;;;89.87;46.63;;;0.70;99.90;;;;;;5000948;28;20568;-30
2021/12/23 13:24:32;;;;;;;;;;;0.60;99.90;;;;;;4965822;28;20522;-30
2021/12/23 13:27:00;;;;;;;91.83;46.43;;;0.60;99.90;;;;;;4982913;28;20323;-30
2021/12/23 13:29:29;;;;;;;86.10;45.77;;;0.50;99.90;;;;;;4999734;28;20061;-30
2021/12/23 13:32:01;;;;;;;91.17;45.73;;;0.60;99.90;;;;;;4997988;28;20058;-30
2021/12/23 13:34:30;;;;;;;91.60;48.10;;;0.60;99.90;;;;;;4983260;28;20481;-30
2021/12/23 13:37:06;;;;;;;89.23;46.23;;;0.70;99.90;;;;;;4987776;28;20998;-30
2021/12/23 13:39:37;;;;;;;92.93;47.17;;;0.60;99.90;;;;;;5003833;28;20051;-30
2021/12/23 13:42:05;;;;;;;85.25;37.30;;;0.60;99.90;;;;;;5000841;28;20540;-31
2021/12/23 13:44:37;;;;;;;88.03;45.53;;;0.60;99.90;;;;;;4987601;28;20037;-30